Time;durP1;ratioP1;P1;durP2;ratioP2;P2;SDS_P1;SDS_P2;PMS_P1;PMS_P2;Temp;Humidity;BMP_temperature;BMP_pressure;BME280_temperature;BME280_humidity;BME280_pressure;Samples;Min_cycle;Max_cycle;Signal;HPM_P1;HPM_P2
2021/10/09 00:00:54;;;;;;;41.30;25.08;;;;;;;11.16;100.00;100302.09;5092160;28;20226;-77
2021/10/09 00:03:21;;;;;;;37.25;27.25;;;;;;;11.17;99.74;100292.19;5087839;28;20196;-76
2021/10/09 00:05:49;;;;;;;32.47;24.00;;;;;;;11.11;100.00;100300.59;5089471;28;20226;-75
2021/10/09 00:08:16;;;;;;;35.42;26.02;;;;;;;11.07;100.00;100300.72;5090149;28;20560;-75
2021/10/09 00:10:44;;;;;;;39.55;26.65;;;;;;;10.99;100.00;100297.56;5091110;28;20196;-77
2021/10/09 00:13:11;;;;;;;36.60;27.08;;;;;;;11.01;100.00;100297.47;5089362;28;20194;-77
2021/10/09 00:15:38;;;;;;;34.58;25.05;;;;;;;11.03;100.00;100300.97;5092051;28;20561;-77
2021/10/09 00:18:05;;;;;;;39.03;27.42;;;;;;;11.19;99.38;100291.19;5085713;28;20282;-78
2021/10/09 00:20:32;;;;;;;38.28;27.58;;;;;;;11.23;98.19;100294.59;5084417;28;20639;-78
2021/10/09 00:23:00;;;;;;;36.03;25.83;;;;;;;11.17;98.46;100294.88;5083775;28;20180;-78
2021/10/09 00:25:27;;;;;;;35.13;24.35;;;;;;;11.19;98.36;100288.50;5092865;28;20214;-77
2021/10/09 00:27:54;;;;;;;40.20;26.27;;;;;;;11.04;98.83;100290.13;5091920;28;20192;-78
2021/10/09 00:30:21;;;;;;;34.00;26.30;;;;;;;11.05;99.04;100285.59;5092186;28;20277;-77
2021/10/09 00:32:50;;;;;;;38.90;26.65;;;;;;;10.98;99.27;100285.00;5086569;28;20199;-77
2021/10/09 00:35:17;;;;;;;36.53;26.17;;;;;;;10.94;99.34;100287.94;5092072;28;20284;-77
2021/10/09 00:37:43;;;;;;;39.53;27.15;;;;;;;10.92;100.00;100279.94;5091659;28;20194;-77
2021/10/09 00:40:14;;;;;;;39.03;28.13;;;;;;;10.88;100.00;100288.22;5088377;28;20193;-78
2021/10/09 00:42:44;;;;;;;38.50;27.33;;;;;;;10.91;100.00;100288.97;5091312;28;20227;-78
2021/10/09 00:45:10;;;;;;;38.28;26.58;;;;;;;10.83;100.00;100286.66;5091839;28;20202;-76
2021/10/09 00:47:37;;;;;;;39.65;27.02;;;;;;;10.83;100.00;100281.25;5090473;28;20192;-76
2021/10/09 00:50:05;;;;;;;38.63;27.10;;;;;;;10.65;100.00;100276.75;5085496;28;20207;-77
2021/10/09 00:52:34;;;;;;;37.78;26.73;;;;;;;10.66;100.00;100280.31;5086554;28;20194;-76
2021/10/09 00:55:06;;;;;;;36.10;26.55;;;;;;;10.61;100.00;100286.78;5086834;28;20310;-78
2021/10/09 00:57:45;;;;;;;36.80;26.48;;;;;;;10.68;100.00;100279.31;5094040;28;20281;-78
2021/10/09 01:00:15;;;;;;;36.67;27.00;;;;;;;10.73;100.00;100285.34;5093785;28;20187;-78
2021/10/09 01:02:45;;;;;;;37.22;26.35;;;;;;;10.71;100.00;100287.22;5093699;28;20194;-78
2021/10/09 01:05:12;;;;;;;38.17;26.33;;;;;;;10.71;100.00;100289.91;5085561;28;20233;-78
2021/10/09 01:07:38;;;;;;;38.35;28.02;;;;;;;10.69;100.00;100288.25;5093421;28;20279;-77
2021/10/09 01:10:06;;;;;;;46.47;28.35;;;;;;;10.64;100.00;100283.94;5093118;28;20252;-77
2021/10/09 01:12:33;;;;;;;37.08;26.42;;;;;;;10.60;100.00;100284.16;5084787;28;20245;-77
2021/10/09 01:15:15;;;;;;;42.72;27.92;;;;;;;10.48;100.00;100287.44;5096877;28;20199;-77
2021/10/09 01:17:42;;;;;;;40.70;27.50;;;;;;;10.43;100.00;100282.28;5083024;28;20270;-76
2021/10/09 01:20:12;;;;;;;40.25;26.35;;;;;;;10.53;100.00;100278.19;5096737;28;20191;-77
2021/10/09 01:22:39;;;;;;;35.28;25.48;;;;;;;10.45;100.00;100285.78;5092304;28;20195;-77
2021/10/09 01:25:07;;;;;;;36.72;27.02;;;;;;;10.45;100.00;100275.00;5089781;28;20195;-77
2021/10/09 01:27:35;;;;;;;43.08;26.45;;;;;;;10.29;100.00;100273.94;5091921;28;20199;-77
2021/10/09 01:30:05;;;;;;;41.63;26.17;;;;;;;10.26;100.00;100276.75;5069561;28;20234;-76
2021/10/09 01:32:32;;;;;;;42.17;29.33;;;;;;;10.22;100.00;100284.09;5066335;28;20670;-76
2021/10/09 01:34:58;;;;;;;39.03;27.27;;;;;;;10.41;100.00;100289.56;5075827;28;20529;-77
2021/10/09 01:37:37;;;;;;;42.30;28.23;;;;;;;10.38;100.00;100284.31;5068071;28;20216;-75
2021/10/09 01:40:04;;;;;;;43.30;28.23;;;;;;;10.29;100.00;100282.03;5074084;28;20276;-76
2021/10/09 01:42:31;;;;;;;42.25;30.50;;;;;;;10.32;100.00;100282.78;5076621;28;20554;-76
2021/10/09 01:44:57;;;;;;;40.55;27.90;;;;;;;10.33;100.00;100287.19;5075079;28;20197;-76
2021/10/09 01:47:24;;;;;;;40.85;26.77;;;;;;;10.35;100.00;100279.94;5081389;28;20197;-76
2021/10/09 01:49:51;;;;;;;40.50;28.98;;;;;;;10.30;100.00;100278.41;5072740;28;20516;-77
2021/10/09 01:52:18;;;;;;;40.28;27.70;;;;;;;10.28;100.00;100277.56;5073984;28;20232;-77
2021/10/09 01:54:46;;;;;;;43.63;29.02;;;;;;;10.31;100.00;100274.75;5075294;28;20275;-77
2021/10/09 01:57:13;;;;;;;42.33;27.20;;;;;;;10.20;100.00;100273.41;5071631;28;20199;-77
2021/10/09 01:59:39;;;;;;;39.20;29.58;;;;;;;10.18;100.00;100271.75;5068324;28;20535;-77
2021/10/09 02:02:06;;;;;;;43.92;28.80;;;;;;;10.11;100.00;100267.59;5078919;28;20223;-77
2021/10/09 02:04:33;;;;;;;44.53;28.88;;;;;;;10.21;100.00;100268.91;5078441;28;20233;-77
2021/10/09 02:07:00;;;;;;;44.30;28.38;;;;;;;10.22;100.00;100260.75;5076688;28;20222;-77
2021/10/09 02:09:26;;;;;;;42.65;28.17;;;;;;;10.15;100.00;100255.72;5071539;28;20223;-77
2021/10/09 02:11:54;;;;;;;38.05;29.10;;;;;;;10.21;100.00;100253.63;5074119;28;20206;-77
2021/10/09 02:14:24;;;;;;;42.25;29.77;;;;;;;10.01;100.00;100261.72;5072912;28;20194;-76
2021/10/09 02:17:24;;;;;;;40.42;28.58;;;;;;;10.16;100.00;100258.34;5073914;28;20183;-76
2021/10/09 02:25:35;;;;;;;42.22;29.65;;;;;;;9.96;100.00;100256.56;5071315;28;20192;-77
2021/10/09 02:28:05;;;;;;;45.35;31.05;;;;;;;10.02;100.00;100255.44;5076884;28;20199;-78
2021/10/09 02:30:32;;;;;;;44.30;29.88;;;;;;;9.96;100.00;100261.06;5075145;28;20540;-78
2021/10/09 02:33:00;;;;;;;54.08;36.20;;;;;;;9.90;100.00;100256.81;5077889;28;20222;-78
2021/10/09 02:35:27;;;;;;;56.10;33.75;;;;;;;9.97;100.00;100258.31;5076789;28;20537;-77
2021/10/09 02:37:54;;;;;;;51.47;34.58;;;;;;;10.07;100.00;100258.78;5077641;28;20214;-78
2021/10/09 02:40:20;;;;;;;54.70;35.28;;;;;;;10.03;100.00;100257.16;5082586;28;20283;-77
2021/10/09 02:42:48;;;;;;;45.22;29.55;;;;;;;10.04;100.00;100253.53;5083140;28;20201;-78
2021/10/09 02:45:16;;;;;;;49.40;31.50;;;;;;;9.98;100.00;100259.19;5071814;28;20201;-78
2021/10/09 02:47:43;;;;;;;41.75;29.27;;;;;;;9.94;100.00;100255.75;5073865;28;20203;-78
2021/10/09 02:50:13;;;;;;;49.90;30.20;;;;;;;9.97;100.00;100250.25;5077256;28;20314;-77
2021/10/09 02:52:40;;;;;;;48.88;30.13;;;;;;;10.04;100.00;100248.16;5069589;28;20585;-76
2021/10/09 02:55:07;;;;;;;41.80;29.70;;;;;;;10.04;100.00;100248.16;5070170;28;20199;-77
2021/10/09 02:57:34;;;;;;;45.30;29.40;;;;;;;10.07;100.00;100250.69;5078342;28;20198;-77
2021/10/09 03:00:01;;;;;;;45.15;29.05;;;;;;;10.10;100.00;100247.00;5065855;28;20188;-77
2021/10/09 03:02:29;;;;;;;46.10;30.02;;;;;;;9.96;100.00;100250.31;5074889;28;20201;-76
2021/10/09 03:04:55;;;;;;;47.28;29.92;;;;;;;10.05;100.00;100247.19;5066258;28;20639;-76
2021/10/09 03:07:25;;;;;;;43.35;28.85;;;;;;;10.13;100.00;100249.53;5077773;28;20556;-76
2021/10/09 03:09:51;;;;;;;42.20;29.48;;;;;;;10.10;100.00;100252.38;5060785;28;20286;-77
2021/10/09 03:12:18;;;;;;;42.22;29.25;;;;;;;10.10;100.00;100249.69;5067432;28;20199;-77
2021/10/09 03:14:45;;;;;;;43.22;28.70;;;;;;;10.07;100.00;100257.91;5080973;28;20556;-77
2021/10/09 03:17:11;;;;;;;45.58;29.23;;;;;;;9.85;100.00;100252.63;5067747;28;20234;-75
2021/10/09 03:19:39;;;;;;;41.70;28.33;;;;;;;9.73;100.00;100249.53;5070640;28;20205;-76
2021/10/09 03:22:06;;;;;;;45.00;29.08;;;;;;;9.69;100.00;100257.78;5072650;28;20227;-76
2021/10/09 03:24:33;;;;;;;42.38;27.55;;;;;;;9.62;100.00;100250.94;5071108;28;20192;-77
2021/10/09 03:27:00;;;;;;;42.95;29.92;;;;;;;9.70;100.00;100251.47;5062724;28;20218;-77
2021/10/09 03:29:26;;;;;;;39.75;28.17;;;;;;;9.61;100.00;100260.84;5086468;28;20235;-76
2021/10/09 03:31:53;;;;;;;45.25;29.15;;;;;;;9.75;100.00;100255.72;5088429;28;20195;-76
2021/10/09 03:34:20;;;;;;;45.00;29.55;;;;;;;9.85;100.00;100258.00;5085212;28;20190;-77
2021/10/09 03:36:48;;;;;;;43.05;28.73;;;;;;;9.86;100.00;100260.63;5090753;28;20186;-77
2021/10/09 03:39:17;;;;;;;47.15;29.20;;;;;;;9.87;100.00;100264.19;5091197;28;20187;-76
2021/10/09 03:41:47;;;;;;;43.28;28.15;;;;;;;9.84;99.88;100267.00;5087168;28;20274;-77
2021/10/09 03:44:13;;;;;;;44.50;29.90;;;;;;;9.69;100.00;100263.19;5093724;28;20216;-77
2021/10/09 03:46:43;;;;;;;42.22;28.92;;;;;;;9.38;100.00;100257.31;5091503;28;20207;-77
2021/10/09 03:49:20;;;;;;;42.35;28.83;;;;;;;9.59;100.00;100260.88;5085921;28;20210;-78
2021/10/09 03:54:32;;;;;;;48.70;29.45;;;;;;;9.55;100.00;100266.47;5088880;28;20205;-77
2021/10/09 03:56:58;;;;;;;43.90;29.48;;;;;;;9.65;100.00;100261.56;5090855;28;20186;-76
2021/10/09 03:59:25;;;;;;;44.30;29.38;;;;;;;9.56;100.00;100255.63;5090181;28;20198;-77
2021/10/09 04:01:54;;;;;;;40.03;27.40;;;;;;;9.68;100.00;100256.94;5087766;28;20195;-77
2021/10/09 04:04:22;;;;;;;36.80;27.00;;;;;;;9.60;100.00;100256.38;5090247;28;20193;-77
2021/10/09 04:06:50;;;;;;;45.42;28.63;;;;;;;9.59;100.00;100255.50;5089919;28;20200;-77
2021/10/09 04:09:17;;;;;;;45.83;28.83;;;;;;;9.48;100.00;100265.00;5090797;28;20212;-77
2021/10/09 04:11:43;;;;;;;49.33;30.40;;;;;;;9.49;100.00;100258.66;5089128;28;20201;-76
2021/10/09 04:14:10;;;;;;;42.85;29.52;;;;;;;9.53;100.00;100262.97;5090203;28;20194;-77
2021/10/09 04:16:36;;;;;;;44.22;29.05;;;;;;;9.49;100.00;100259.53;5085321;28;20293;-78
2021/10/09 04:19:03;;;;;;;41.90;28.88;;;;;;;9.54;100.00;100257.53;5085893;28;20278;-78
2021/10/09 04:21:30;;;;;;;45.65;30.50;;;;;;;9.38;100.00;100254.63;5091609;28;20600;-76
2021/10/09 04:23:58;;;;;;;49.03;30.67;;;;;;;9.40;100.00;100262.59;5084783;28;20226;-76
2021/10/09 04:26:25;;;;;;;49.30;31.17;;;;;;;9.39;100.00;100267.13;5090361;28;20222;-76
2021/10/09 04:28:52;;;;;;;41.85;29.15;;;;;;;9.55;100.00;100261.09;5084848;28;20229;-76
2021/10/09 04:31:18;;;;;;;48.92;28.25;;;;;;;9.47;99.73;100264.09;5064559;28;20192;-77
2021/10/09 04:33:45;;;;;;;46.55;30.48;;;;;;;9.12;100.00;100268.28;5077082;28;20195;-78
2021/10/09 04:36:12;;;;;;;46.30;30.50;;;;;;;9.21;100.00;100273.28;5073848;28;20190;-76
2021/10/09 04:38:41;;;;;;;45.47;29.05;;;;;;;9.11;100.00;100267.41;5069682;28;20292;-77
2021/10/09 04:41:09;;;;;;;47.65;31.70;;;;;;;9.12;100.00;100263.78;5071199;28;20209;-77
2021/10/09 04:43:36;;;;;;;47.20;31.67;;;;;;;8.83;100.00;100272.16;5069086;28;20201;-77
2021/10/09 04:46:03;;;;;;;45.13;30.00;;;;;;;9.16;100.00;100275.28;5070375;28;21327;-75
2021/10/09 04:48:30;;;;;;;43.05;30.40;;;;;;;9.08;100.00;100270.22;5075684;28;20224;-77
2021/10/09 04:50:56;;;;;;;48.00;31.02;;;;;;;8.91;100.00;100270.91;5087505;28;20213;-78
2021/10/09 04:53:23;;;;;;;45.72;30.70;;;;;;;8.91;100.00;100273.59;5085218;28;20648;-77
2021/10/09 04:55:49;;;;;;;43.90;28.58;;;;;;;8.89;100.00;100278.16;5083832;28;20196;-77
2021/10/09 04:58:17;;;;;;;50.17;31.27;;;;;;;8.84;100.00;100268.53;5088499;28;20990;-77
2021/10/09 05:00:44;;;;;;;45.92;28.67;;;;;;;8.76;100.00;100271.53;5090044;28;20279;-78
2021/10/09 05:03:11;;;;;;;47.08;30.08;;;;;;;8.74;100.00;100278.78;5079009;28;20204;-76
2021/10/09 05:05:37;;;;;;;50.60;32.97;;;;;;;8.74;100.00;100281.44;5076856;28;20890;-78
2021/10/09 05:08:04;;;;;;;43.75;31.00;;;;;;;8.82;100.00;100279.34;5085876;28;20239;-79
2021/10/09 05:10:31;;;;;;;46.88;30.45;;;;;;;8.94;100.00;100281.53;5086204;28;20201;-77
2021/10/09 05:12:57;;;;;;;49.65;30.35;;;;;;;8.88;100.00;100288.97;5097252;28;20198;-77
2021/10/09 05:15:26;;;;;;;48.38;32.35;;;;;;;8.91;100.00;100280.75;5089195;28;20251;-77
2021/10/09 05:17:53;;;;;;;45.83;30.45;;;;;;;8.89;100.00;100275.47;5063603;28;20901;-76
2021/10/09 05:20:21;;;;;;;43.17;30.42;;;;;;;8.97;100.00;100278.69;5087265;28;20300;-77
2021/10/09 05:22:47;;;;;;;45.78;29.10;;;;;;;9.00;100.00;100279.53;5088937;28;20551;-78
2021/10/09 05:25:14;;;;;;;43.95;30.40;;;;;;;8.97;100.00;100289.44;5088391;28;20636;-78
2021/10/09 05:27:50;;;;;;;48.97;30.10;;;;;;;9.06;100.00;100277.47;5088609;28;20299;-78
2021/10/09 05:30:17;;;;;;;43.13;29.67;;;;;;;8.86;100.00;100280.09;5099542;28;20253;-78
2021/10/09 05:32:58;;;;;;;48.03;31.67;;;;;;;9.18;100.00;100276.09;5100277;28;20200;-78
2021/10/09 05:35:25;;;;;;;39.85;28.58;;;;;;;8.96;100.00;100281.47;5095866;28;20198;-77
2021/10/09 05:37:52;;;;;;;47.55;29.15;;;;;;;9.10;100.00;100268.34;5101980;28;20203;-77
2021/10/09 05:40:18;;;;;;;47.72;30.25;;;;;;;8.88;100.00;100271.03;5102377;28;20189;-78
2021/10/09 05:42:48;;;;;;;44.03;28.83;;;;;;;9.02;100.00;100272.28;5103517;28;20188;-78
2021/10/09 05:45:14;;;;;;;42.70;29.02;;;;;;;9.01;99.20;100278.59;5101924;28;20189;-78
2021/10/09 05:47:41;;;;;;;40.20;27.90;;;;;;;8.95;99.95;100279.72;5100838;28;20279;-78
2021/10/09 05:50:11;;;;;;;43.80;28.27;;;;;;;9.07;100.00;100281.03;5093743;28;20182;-76
2021/10/09 05:52:43;;;;;;;57.58;31.23;;;;;;;8.91;100.00;100288.81;5095588;28;20184;-77
2021/10/09 05:55:15;;;;;;;40.38;27.88;;;;;;;8.76;100.00;100293.00;5089768;28;20186;-77
2021/10/09 05:57:46;;;;;;;47.08;31.33;;;;;;;8.74;100.00;100293.06;5097251;28;20217;-77
2021/10/09 07:00:43;;;;;;;42.33;28.13;;;;;;;9.55;93.57;100344.44;5091232;28;20277;-76
2021/10/09 07:03:10;;;;;;;40.58;27.95;;;;;;;9.40;94.24;100337.88;5091104;28;20197;-76
2021/10/09 07:05:41;;;;;;;42.40;27.88;;;;;;;9.49;94.34;100339.31;5091552;28;20614;-76
2021/10/09 07:08:09;;;;;;;41.00;28.80;;;;;;;9.52;94.42;100337.38;5089120;28;20359;-76
2021/10/09 07:10:39;;;;;;;43.58;28.50;;;;;;;9.49;94.10;100344.69;5089042;28;20674;-76
2021/10/09 07:13:06;;;;;;;41.58;28.33;;;;;;;9.67;93.65;100343.91;5088982;28;20642;-76
2021/10/09 07:15:33;;;;;;;48.30;28.38;;;;;;;9.74;92.64;100353.44;5089741;28;20622;-76
2021/10/09 07:17:59;;;;;;;39.25;25.85;;;;;;;9.84;92.00;100356.66;5089693;28;20200;-76
2021/10/09 07:20:26;;;;;;;43.88;28.13;;;;;;;9.92;91.84;100359.00;5089857;28;20207;-76
2021/10/09 07:22:53;;;;;;;42.55;29.30;;;;;;;9.94;90.94;100347.22;5088142;28;20565;-76
2021/10/09 07:25:20;;;;;;;39.00;28.25;;;;;;;9.96;90.86;100353.41;5090294;28;20199;-75
2021/10/09 07:27:48;;;;;;;45.78;29.40;;;;;;;10.06;90.15;100353.00;5089000;28;20238;-76
2021/10/09 07:30:16;;;;;;;37.78;26.95;;;;;;;10.22;89.47;100349.59;5090149;28;20314;-77
2021/10/09 07:32:44;;;;;;;40.08;26.90;;;;;;;10.23;89.06;100363.91;5091308;28;20212;-76
2021/10/09 07:35:11;;;;;;;35.50;24.77;;;;;;;10.30;88.67;100356.47;5089044;28;20640;-76
2021/10/09 07:37:38;;;;;;;38.90;26.33;;;;;;;10.33;88.10;100361.69;5089615;28;20556;-76
2021/10/09 07:40:06;;;;;;;38.90;26.10;;;;;;;10.30;88.26;100353.78;5091493;28;20283;-77
2021/10/09 07:42:32;;;;;;;35.80;26.17;;;;;;;10.46;87.60;100353.94;5092601;28;20190;-77
2021/10/09 07:45:01;;;;;;;37.20;24.17;;;;;;;10.49;87.57;100362.78;5094713;28;20557;-76
2021/10/09 07:47:27;;;;;;;37.92;24.83;;;;;;;10.55;87.08;100364.31;5094401;28;20207;-77
2021/10/09 07:49:54;;;;;;;33.17;23.08;;;;;;;10.67;86.23;100365.56;5094469;28;20282;-77
2021/10/09 07:52:20;;;;;;;35.47;24.30;;;;;;;10.63;85.50;100360.31;5092393;28;20206;-76
2021/10/09 07:54:47;;;;;;;36.15;24.75;;;;;;;10.63;85.98;100357.63;5091068;28;20645;-76
2021/10/09 07:57:14;;;;;;;36.42;25.63;;;;;;;10.77;85.38;100359.66;5089698;28;20209;-76
2021/10/09 07:59:41;;;;;;;35.33;23.33;;;;;;;10.86;84.96;100366.44;5092408;28;20215;-77
2021/10/09 08:02:09;;;;;;;31.52;23.05;;;;;;;10.92;83.91;100363.47;5091451;28;20286;-76
2021/10/09 08:04:36;;;;;;;32.60;22.52;;;;;;;11.03;83.87;100360.25;5090982;28;20295;-76
2021/10/09 08:07:03;;;;;;;30.92;22.63;;;;;;;11.10;83.12;100366.22;5090987;28;20230;-76
2021/10/09 08:09:32;;;;;;;31.55;22.90;;;;;;;11.09;83.23;100364.47;5091088;28;20298;-76
2021/10/09 08:11:59;;;;;;;31.80;21.02;;;;;;;11.18;82.68;100366.72;5091278;28;20249;-76
2021/10/09 08:14:26;;;;;;;27.27;20.10;;;;;;;11.24;82.11;100370.00;5093413;28;20550;-76
2021/10/09 08:16:53;;;;;;;31.02;22.52;;;;;;;11.38;81.63;100371.16;5093581;28;20200;-76
2021/10/09 08:19:21;;;;;;;34.55;23.40;;;;;;;11.46;80.77;100369.84;5092962;28;20206;-76
2021/10/09 08:21:48;;;;;;;29.83;20.35;;;;;;;11.57;80.17;100363.88;5094659;28;20221;-77
2021/10/09 08:24:25;;;;;;;30.75;19.70;;;;;;;11.52;79.94;100357.84;5095023;28;20291;-76
2021/10/09 08:40:31;;;;;;;29.15;19.45;;;;;;;12.14;77.37;100373.63;5077180;28;20208;-76
2021/10/09 08:42:58;;;;;;;28.48;20.05;;;;;;;12.22;76.91;100374.97;5079259;28;20208;-76
2021/10/09 08:45:25;;;;;;;30.23;19.77;;;;;;;12.38;76.37;100366.06;5076824;28;20207;-76
2021/10/09 08:47:51;;;;;;;29.75;22.73;;;;;;;12.38;76.44;100366.94;5076397;28;20327;-76
2021/10/09 08:50:20;;;;;;;26.58;20.45;;;;;;;12.48;75.58;100372.72;5077291;28;20192;-76
2021/10/09 08:53:00;;;;;;;26.50;19.98;;;;;;;12.41;75.59;100372.16;5077518;28;20197;-76
2021/10/09 08:55:29;;;;;;;29.77;19.63;;;;;;;12.62;75.25;100374.69;5080100;28;20210;-77
2021/10/09 08:58:01;;;;;;;22.40;18.42;;;;;;;12.64;74.47;100381.75;5078104;28;20284;-76
2021/10/09 09:00:44;;;;;;;25.83;18.73;;;;;;;12.67;74.42;100368.06;5075150;28;20197;-78
2021/10/09 09:03:13;;;;;;;24.48;18.55;;;;;;;12.70;74.36;100376.00;5077937;28;20192;-77
2021/10/09 09:05:53;;;;;;;25.38;18.63;;;;;;;12.93;73.99;100372.06;5076042;28;20205;-78
2021/10/09 09:25:50;;;;;;;19.88;16.05;;;;;;;13.37;71.25;100364.25;5011582;28;20313;-77
2021/10/09 09:34:11;;;;;;;21.75;17.45;;;;;;;13.96;69.82;100352.59;5069051;28;20205;-77
2021/10/09 09:39:38;;;;;;;26.38;18.20;;;;;;;14.00;69.32;100349.69;5076444;28;20193;-77
2021/10/09 09:42:04;;;;;;;23.15;16.35;;;;;;;14.00;69.41;100350.59;5080429;28;20199;-76
2021/10/09 09:44:31;;;;;;;25.42;18.27;;;;;;;13.98;69.10;100345.25;5082153;28;20595;-76
2021/10/09 09:47:07;;;;;;;23.88;17.30;;;;;;;13.83;70.34;100350.72;5081675;28;20196;-76
2021/10/09 09:49:34;;;;;;;20.30;16.15;;;;;;;14.25;68.88;100343.69;5080810;28;20527;-76
2021/10/09 09:52:01;;;;;;;19.50;15.45;;;;;;;14.45;68.16;100335.19;5082909;28;20293;-76
2021/10/09 09:54:31;;;;;;;23.63;16.23;;;;;;;14.23;68.62;100343.75;5081179;28;20209;-75
2021/10/09 09:56:59;;;;;;;26.13;15.70;;;;;;;14.46;67.90;100342.31;5081076;28;20189;-77
2021/10/09 09:59:30;;;;;;;20.98;15.43;;;;;;;14.47;67.57;100344.09;5084295;28;20283;-77
2021/10/09 10:02:01;;;;;;;17.02;14.43;;;;;;;14.66;67.21;100342.97;5083558;28;20255;-75
2021/10/09 10:04:28;;;;;;;24.27;18.13;;;;;;;14.82;66.72;100342.84;5080551;28;20695;-77
2021/10/09 10:06:55;;;;;;;20.13;15.70;;;;;;;14.76;66.74;100341.38;5078742;28;20285;-76
2021/10/09 10:09:22;;;;;;;20.85;15.52;;;;;;;14.79;66.74;100338.50;5083867;28;20221;-78
2021/10/09 10:11:50;;;;;;;19.30;15.55;;;;;;;15.11;65.48;100331.00;5085305;28;20522;-77
2021/10/09 10:14:17;;;;;;;22.15;16.20;;;;;;;14.90;65.80;100337.78;5078713;28;20205;-76
2021/10/09 10:16:48;;;;;;;18.15;14.55;;;;;;;14.86;66.22;100328.13;5085135;28;20285;-77
2021/10/09 10:19:15;;;;;;;18.80;14.90;;;;;;;15.14;65.09;100340.75;5078853;28;20585;-77
2021/10/09 10:21:48;;;;;;;21.55;15.52;;;;;;;15.35;64.43;100335.75;5080785;28;20191;-77
2021/10/09 10:24:46;;;;;;;20.13;15.32;;;;;;;15.16;64.39;100336.13;5078932;28;20223;-77
2021/10/09 10:27:34;;;;;;;19.27;13.52;;;;;;;15.27;64.13;100336.28;5078757;28;20202;-77
2021/10/09 10:30:20;;;;;;;21.77;14.73;;;;;;;15.56;63.19;100334.34;5084801;28;20242;-77
2021/10/09 10:33:25;;;;;;;17.52;14.02;;;;;;;15.62;62.51;100336.66;5075014;28;20224;-77
2021/10/09 10:35:52;;;;;;;17.73;15.15;;;;;;;15.77;62.59;100336.59;5077829;28;20300;-77
2021/10/09 10:38:55;;;;;;;16.30;13.35;;;;;;;15.66;62.97;100326.44;5082560;28;20266;-75
2021/10/09 10:41:50;;;;;;;18.63;14.10;;;;;;;15.90;61.81;100326.66;5076881;28;20491;-77
2021/10/09 10:47:49;;;;;;;19.55;13.95;;;;;;;16.43;60.49;100330.16;5078412;28;20223;-76
2021/10/09 10:50:58;;;;;;;21.33;13.70;;;;;;;16.50;59.76;100333.31;5078627;28;20226;-76
2021/10/09 10:53:59;;;;;;;16.77;13.98;;;;;;;16.38;59.99;100328.75;5079347;28;20242;-76
2021/10/09 10:56:25;;;;;;;18.08;13.32;;;;;;;16.31;60.12;100325.59;5075127;28;20254;-77
2021/10/09 10:59:28;;;;;;;15.60;13.45;;;;;;;16.05;60.48;100328.31;5077851;28;20280;-76
2021/10/09 11:02:09;;;;;;;15.52;12.77;;;;;;;16.41;59.68;100331.25;5078269;28;20890;-76
2021/10/09 11:04:36;;;;;;;15.20;13.10;;;;;;;16.56;59.44;100329.31;5077751;28;20282;-76
2021/10/09 11:07:03;;;;;;;17.35;13.50;;;;;;;16.64;59.57;100327.78;5080871;28;20271;-77
2021/10/09 11:09:30;;;;;;;19.70;12.30;;;;;;;16.79;59.07;100328.53;5080212;28;20620;-78
2021/10/09 11:11:57;;;;;;;13.95;12.23;;;;;;;16.67;59.42;100329.41;5077454;28;20200;-77
2021/10/09 11:14:25;;;;;;;17.30;13.45;;;;;;;16.66;58.28;100325.81;5081374;28;20227;-75
2021/10/09 11:17:00;;;;;;;17.85;12.77;;;;;;;16.31;59.27;100328.31;5077415;28;20275;-75
2021/10/09 11:19:44;;;;;;;18.10;12.77;;;;;;;16.33;59.27;100326.38;5080566;28;20227;-75
2021/10/09 11:22:11;;;;;;;14.85;12.85;;;;;;;16.56;59.11;100316.56;5080985;28;20220;-75
2021/10/09 11:24:42;;;;;;;20.10;13.35;;;;;;;16.55;58.96;100312.13;5081050;28;20204;-76
2021/10/09 11:27:09;;;;;;;23.90;12.70;;;;;;;16.60;58.78;100331.69;5081976;28;20192;-76
2021/10/09 11:29:36;;;;;;;15.23;12.55;;;;;;;16.71;58.65;100322.78;5082731;28;20235;-76
2021/10/09 11:32:05;;;;;;;13.25;11.48;;;;;;;16.74;58.49;100316.25;5079169;28;20675;-76
2021/10/09 11:34:32;;;;;;;18.00;13.10;;;;;;;16.87;58.55;100304.38;5079757;28;20198;-78
2021/10/09 11:37:00;;;;;;;15.82;11.77;;;;;;;17.00;58.07;100307.03;5080100;28;20207;-76
2021/10/09 11:39:27;;;;;;;19.52;13.05;;;;;;;17.17;57.83;100303.09;5080017;28;20194;-76
2021/10/09 11:42:06;;;;;;;13.30;11.43;;;;;;;17.15;57.57;100315.09;5078168;28;20220;-76
2021/10/09 11:44:36;;;;;;;16.40;11.90;;;;;;;17.11;57.83;100303.53;5076199;28;20707;-76
2021/10/09 11:47:34;;;;;;;14.70;12.07;;;;;;;17.08;57.19;100310.09;5078763;28;20598;-77
2021/10/09 11:55:36;;;;;;;15.15;12.07;;;;;;;17.04;57.21;100304.97;5076105;28;20202;-76
2021/10/09 11:58:05;;;;;;;14.63;11.80;;;;;;;17.09;57.16;100300.97;5076516;28;20196;-76
2021/10/09 12:00:39;;;;;;;19.13;12.60;;;;;;;17.20;57.19;100297.41;5076921;28;20613;-75
2021/10/09 12:03:37;;;;;;;15.48;11.73;;;;;;;17.15;56.92;100298.75;5078003;28;20200;-76
2021/10/09 12:06:09;;;;;;;14.63;11.02;;;;;;;16.98;56.26;100294.53;5081057;28;20296;-75
2021/10/09 12:08:47;;;;;;;16.25;11.55;;;;;;;16.92;56.63;100295.03;5080028;28;20220;-75
2021/10/09 12:11:22;;;;;;;12.40;10.38;;;;;;;16.93;56.75;100296.75;5080012;28;20290;-77
2021/10/09 12:13:51;;;;;;;13.27;10.30;;;;;;;16.93;56.25;100299.47;5079204;28;20211;-76
2021/10/09 12:16:22;;;;;;;15.45;11.55;;;;;;;17.10;56.22;100296.38;5079644;28;20207;-76
2021/10/09 12:18:53;;;;;;;15.18;11.30;;;;;;;17.25;55.55;100284.34;5079910;28;20276;-76
2021/10/09 12:21:21;;;;;;;13.30;11.60;;;;;;;17.22;55.84;100283.69;5078087;28;20201;-76
2021/10/09 12:23:49;;;;;;;14.10;10.85;;;;;;;17.00;56.04;100292.59;5077942;28;20206;-77
2021/10/09 12:26:17;;;;;;;14.18;11.02;;;;;;;17.13;55.45;100298.84;5079954;28;20319;-76
2021/10/09 12:29:13;;;;;;;11.40;10.20;;;;;;;17.09;55.32;100289.19;5081335;28;20689;-76
2021/10/09 12:31:44;;;;;;;13.25;11.20;;;;;;;17.12;55.67;100288.97;5080883;28;20195;-76
2021/10/09 12:34:29;;;;;;;17.08;11.15;;;;;;;17.22;54.68;100297.31;5080878;28;20204;-76
2021/10/09 12:37:14;;;;;;;15.95;11.30;;;;;;;17.18;54.45;100288.50;5082181;28;20697;-76
2021/10/09 12:39:43;;;;;;;13.35;9.38;;;;;;;17.19;53.43;100287.53;5080389;28;20196;-76
2021/10/09 12:42:12;;;;;;;14.45;10.48;;;;;;;17.35;53.25;100281.78;5079407;28;20288;-75
2021/10/09 12:44:39;;;;;;;10.82;9.73;;;;;;;17.39;53.09;100285.13;5080434;28;20215;-77
2021/10/09 12:47:05;;;;;;;12.18;10.57;;;;;;;17.55;52.06;100283.00;5081551;28;20196;-77
2021/10/09 12:49:32;;;;;;;11.15;9.25;;;;;;;17.69;51.72;100282.81;5080882;28;20228;-76
2021/10/09 12:51:59;;;;;;;11.30;8.60;;;;;;;17.75;51.48;100270.59;5079467;28;20292;-75
2021/10/09 12:54:27;;;;;;;10.05;9.00;;;;;;;17.97;50.97;100274.38;5081834;28;20207;-77
2021/10/09 12:56:56;;;;;;;11.40;9.45;;;;;;;18.04;50.24;100272.91;5078763;28;20228;-77
2021/10/09 12:59:23;;;;;;;10.38;8.70;;;;;;;18.36;49.73;100270.38;5080645;28;20201;-77
2021/10/09 13:01:49;;;;;;;11.98;9.20;;;;;;;18.62;48.82;100281.03;5079346;28;20295;-75
2021/10/09 13:04:16;;;;;;;10.02;8.43;;;;;;;18.76;48.74;100273.44;5080136;28;20204;-75
2021/10/09 13:06:42;;;;;;;15.45;10.02;;;;;;;18.95;48.08;100266.53;5080089;28;20296;-76
2021/10/09 13:09:11;;;;;;;12.85;10.70;;;;;;;18.62;48.39;100275.56;5082503;28;20206;-76
2021/10/09 13:11:45;;;;;;;13.18;10.27;;;;;;;19.02;47.87;100277.81;5086598;28;20215;-76
2021/10/09 13:14:13;;;;;;;10.68;8.35;;;;;;;19.13;47.18;100265.00;5083408;28;20204;-77
2021/10/09 13:16:39;;;;;;;11.32;9.60;;;;;;;19.52;47.10;100267.22;5086897;28;20356;-76
2021/10/09 13:19:06;;;;;;;10.57;9.38;;;;;;;19.70;46.46;100264.81;5085014;28;20580;-76